Bookmark and Share
Track history (hours):
 

Luminous Kobe-2

Last reported at 2014-Apr-18 02:33 UTC. Time now 2014-Apr-18 03:05 UTC.
Position N 34°41' E 135°11'.

Length 105 m; draft 4.5 m.

Type: Passenger vessel. MMSI: 431000469.

NotesDate/timePositionNaut miles runAvg speedWind from/ knotsBaromVisibWave heightAir tempDewpointWater temp
2014-Apr-18 02:33N 34°41' E 135°11'0 0.0
2014-Apr-18 01:32N 34°41' E 135°11'0 0.0
2014-Apr-18 00:26N 34°41' E 135°11'0 0.0
2014-Apr-17 23:32N 34°41' E 135°11'0 0.0
2014-Apr-17 22:26N 34°41' E 135°11'0 0.0
2014-Apr-17 21:32N 34°41' E 135°11'0 0.0
2014-Apr-17 20:20N 34°41' E 135°11'0 0.0
2014-Apr-17 19:26N 34°41' E 135°11'0 0.0
2014-Apr-17 18:32N 34°41' E 135°11'0 0.0
2014-Apr-17 17:32N 34°41' E 135°11'0 0.0
2014-Apr-17 16:32N 34°41' E 135°11'0 0.0
2014-Apr-17 15:32N 34°41' E 135°11'0 0.0
2014-Apr-17 14:32N 34°41' E 135°11'0 0.0
2014-Apr-17 13:26N 34°41' E 135°11'0 0.0
2014-Apr-17 12:32N 34°41' E 135°11'8 7.8
2014-Apr-17 11:33N 34°35' E 135°06'2 2.1
2014-Apr-17 10:34N 34°37' E 135°06'6 5.8
2014-Apr-17 09:33N 34°41' E 135°11'0 0.0
2014-Apr-17 08:29N 34°41' E 135°11'5 5.1
2014-Apr-17 07:33N 34°38' E 135°07'5 4.2
2014-Apr-17 06:25N 34°41' E 135°11'0 0.0
2014-Apr-17 05:25N 34°41' E 135°11'3 3.0
2014-Apr-17 04:34N 34°38' E 135°11'2 2.0
2014-Apr-17 03:34N 34°37' E 135°13'4 3.9
2014-Apr-17 02:33N 34°41' E 135°11'0 0.0
2014-Apr-17 01:29N 34°41' E 135°11'0 0.0
2014-Apr-17 00:29N 34°41' E 135°11'0 0.0
2014-Apr-16 23:23N 34°41' E 135°11'0 0.0
2014-Apr-16 22:29N 34°41' E 135°11'0 0.0
2014-Apr-16 21:29N 34°41' E 135°11'0 0.0
2014-Apr-16 20:29N 34°41' E 135°11'0 0.0
2014-Apr-16 19:17N 34°41' E 135°11'0 0.0
2014-Apr-16 18:29N 34°41' E 135°11'0 0.0
2014-Apr-16 17:29N 34°41' E 135°11'0 0.0
2014-Apr-16 16:29N 34°41' E 135°11'0 0.0
2014-Apr-16 15:29N 34°41' E 135°11'0 0.0
2014-Apr-16 14:29N 34°41' E 135°11'0 0.0
2014-Apr-16 13:23N 34°41' E 135°11'0 0.0
2014-Apr-16 12:29N 34°41' E 135°11'9 9.3
2014-Apr-16 11:33N 34°36' E 135°03'3 2.8
2014-Apr-16 10:34N 34°37' E 135°06'6 5.8
2014-Apr-16 09:31N 34°41' E 135°11'0 0.0
2014-Apr-16 08:31N 34°41' E 135°11'5 4.8
2014-Apr-16 07:33N 34°38' E 135°07'5 4.6
2014-Apr-16 06:33N 34°41' E 135°11'0 0.0
2014-Apr-16 05:23N 34°41' E 135°11'2 2.0
2014-Apr-16 04:33N 34°39' E 135°11'3 2.7
2014-Apr-16 03:34N 34°37' E 135°14'4 4.0
2014-Apr-16 02:33N 34°41' E 135°11'0 0.0
2014-Apr-16 01:30N 34°41' E 135°11'0 0.0
2014-Apr-16 00:30N 34°41' E 135°11'0 0.0
2014-Apr-15 23:30N 34°41' E 135°11'0 0.0
2014-Apr-15 22:24N 34°41' E 135°11'0 0.0
2014-Apr-15 21:30N 34°41' E 135°11'0 0.0
2014-Apr-15 20:30N 34°41' E 135°11'0 0.0
2014-Apr-15 19:24N 34°41' E 135°11'0 0.0
2014-Apr-15 18:30N 34°41' E 135°11'0 0.0
2014-Apr-15 17:23N 34°41' E 135°11'0 0.0
2014-Apr-15 16:29N 34°41' E 135°11'0 0.0
2014-Apr-15 15:29N 34°41' E 135°11'0 0.0
2014-Apr-15 14:29N 34°41' E 135°11'0 0.0
2014-Apr-15 12:30N 34°41' E 135°11'7 3.4
2014-Apr-15 10:34N 34°36' E 135°06'1 1.3
2014-Apr-15 09:34N 34°37' E 135°07'5 5.2
2014-Apr-15 08:34N 34°41' E 135°11'0 0.0
2014-Apr-15 07:33N 34°41' E 135°11'4 4.3
2014-Apr-15 06:33N 34°38' E 135°08'4 4.1
2014-Apr-15 05:30N 34°41' E 135°11'2 1.0
2014-Apr-15 03:34N 34°39' E 135°11'2 2.1
2014-Apr-15 02:34N 34°37' E 135°13'4 3.7
2014-Apr-15 01:34N 34°41' E 135°11'0 0.0
2014-Apr-14 23:34N 34°41' E 135°11'0 0.0
2014-Apr-14 22:34N 34°41' E 135°11'0 0.0
2014-Apr-14 20:34N 34°41' E 135°11'0 0.0
2014-Apr-14 19:33N 34°41' E 135°11'0 0.0
2014-Apr-14 18:33N 34°41' E 135°11'0 0.0
2014-Apr-14 16:33N 34°41' E 135°11'0 0.0
2014-Apr-14 15:33N 34°41' E 135°11'0 0.0
2014-Apr-14 14:33N 34°41' E 135°11'0 0.0
2014-Apr-14 13:33N 34°41' E 135°11'0 0.0
2014-Apr-14 11:33N 34°41' E 135°11'8 8.1
2014-Apr-14 10:32N 34°35' E 135°04'3 3.0
2014-Apr-14 09:33N 34°37' E 135°07'5 5.2
2014-Apr-14 08:33N 34°41' E 135°11'0 0.0
2014-Apr-14 07:29N 34°41' E 135°11'5 4.8
2014-Apr-14 06:33N 34°38' E 135°07'5 4.5
2014-Apr-14 05:33N 34°41' E 135°11'0 0.0
2014-Apr-13 22:30N 34°41' E 135°11'0 0.0
2014-Apr-13 21:30N 34°41' E 135°11'0 0.0
2014-Apr-13 20:30N 34°41' E 135°11'0 0.0
2014-Apr-13 19:30N 34°41' E 135°11'0 0.0
2014-Apr-13 18:18N 34°41' E 135°11'0 0.0
2014-Apr-13 17:30N 34°41' E 135°11'0 0.0
2014-Apr-13 16:30N 34°41' E 135°11'0 0.0
2014-Apr-13 15:30N 34°41' E 135°11'0 0.0
2014-Apr-13 14:30N 34°41' E 135°11'0 0.0
2014-Apr-13 13:30N 34°41' E 135°11'0 0.0
2014-Apr-13 12:30N 34°41' E 135°11'9 9.0
2014-Apr-13 11:33N 34°36' E 135°03'8 7.7
2014-Apr-13 10:34N 34°39' E 135°11'2 1.7
2014-Apr-13 09:33N 34°41' E 135°11'2 2.1
2014-Apr-13 08:33N 34°39' E 135°11'2 1.5
2014-Apr-13 07:33N 34°37' E 135°12'3 2.7
2014-Apr-13 06:17N 34°41' E 135°11'0 0.0
2014-Apr-13 05:29N 34°41' E 135°11'2 2.5
2014-Apr-13 04:33N 34°38' E 135°11'1 1.4
2014-Apr-13 03:33N 34°37' E 135°12'3 3.4
2014-Apr-13 02:33N 34°41' E 135°11'0 0.0
2014-Apr-13 01:28N 34°41' E 135°11'0 0.0
2014-Apr-13 00:28N 34°41' E 135°11'0 0.0
2014-Apr-12 23:28N 34°41' E 135°11'0 0.0
2014-Apr-12 22:28N 34°41' E 135°11'0 0.0
2014-Apr-12 21:28N 34°41' E 135°11'0 0.0
2014-Apr-12 20:28N 34°41' E 135°11'0 0.0
2014-Apr-12 19:28N 34°41' E 135°11'0 0.0
2014-Apr-12 18:28N 34°41' E 135°11'0 0.0
2014-Apr-12 17:28N 34°41' E 135°11'0 0.0
2014-Apr-12 16:28N 34°41' E 135°11'0 0.0
2014-Apr-12 15:28N 34°41' E 135°11'0 0.0
2014-Apr-12 14:28N 34°41' E 135°11'0 0.0
2014-Apr-12 13:28N 34°41' E 135°11'0 0.0
2014-Apr-12 12:23N 34°41' E 135°11'7 8.4
2014-Apr-12 11:33N 34°35' E 135°06'2 2.1
2014-Apr-12 10:33N 34°37' E 135°08'5 4.6
2014-Apr-12 09:30N 34°41' E 135°11'2 2.5
2014-Apr-12 08:33N 34°38' E 135°11'2 2.2
2014-Apr-12 07:33N 34°37' E 135°13'4 4.0
2014-Apr-12 06:33N 34°41' E 135°11'0 0.0
2014-Apr-12 05:29N 34°41' E 135°11'2 2.4
2014-Apr-12 04:33N 34°39' E 135°11'2 1.7
2014-Apr-12 03:33N 34°37' E 135°13'4 3.6
2014-Apr-12 02:33N 34°41' E 135°11'0 0.0
2014-Apr-12 01:29N 34°41' E 135°11'0 0.0
2014-Apr-12 00:29N 34°41' E 135°11'0 0.0
2014-Apr-11 23:29N 34°41' E 135°11'0 0.0
2014-Apr-11 22:17N 34°41' E 135°11'0 0.0
2014-Apr-11 21:29N 34°41' E 135°11'0 0.0
2014-Apr-11 20:17N 34°41' E 135°11'0 0.0
2014-Apr-11 19:29N 34°41' E 135°11'0 0.0
2014-Apr-11 18:29N 34°41' E 135°11'0 0.0
2014-Apr-11 17:23N 34°41' E 135°11'0 0.0
2014-Apr-11 16:17N 34°41' E 135°11'0 0.0
2014-Apr-11 15:23N 34°41' E 135°11'0 0.0
2014-Apr-11 14:29N 34°41' E 135°11'0 0.0
2014-Apr-11 13:29N 34°41' E 135°11'0 0.0
2014-Apr-11 12:29N 34°41' E 135°11'7 7.5
2014-Apr-11 11:34N 34°35' E 135°06'1 1.4
2014-Apr-11 10:33N 34°36' E 135°07'6 5.6
2014-Apr-11 09:33N 34°41' E 135°11'0 0.0
2014-Apr-11 08:28N 34°41' E 135°11'4 4.7
2014-Apr-11 07:33N 34°38' E 135°08'4 4.2
2014-Apr-11 06:30N 34°41' E 135°11'0 0.0
2014-Apr-11 05:30N 34°41' E 135°11'2 2.5
2014-Apr-11 04:33N 34°38' E 135°11'2 2.1
2014-Apr-11 03:33N 34°37' E 135°13'4 4.0
2014-Apr-11 02:33N 34°41' E 135°11'0 0.0
2014-Apr-11 01:30N 34°41' E 135°11'0 0.0
2014-Apr-11 00:30N 34°41' E 135°11'0 0.0
2014-Apr-10 23:30N 34°41' E 135°11'0 0.0
2014-Apr-10 22:30N 34°41' E 135°11'0 0.0
2014-Apr-10 21:30N 34°41' E 135°11'0 0.0
2014-Apr-10 20:30N 34°41' E 135°11'0 0.0
2014-Apr-10 19:30N 34°41' E 135°11'0 0.0
2014-Apr-10 18:30N 34°41' E 135°11'0 0.0
2014-Apr-10 17:30N 34°41' E 135°11'0 0.0
2014-Apr-10 16:30N 34°41' E 135°11'0 0.0
2014-Apr-10 15:30N 34°41' E 135°11'0 0.0
2014-Apr-10 14:30N 34°41' E 135°11'0 0.0
2014-Apr-10 13:30N 34°41' E 135°11'0 0.0
2014-Apr-10 12:30N 34°41' E 135°11'0 0.0
2014-Apr-10 11:18N 34°41' E 135°11'0 0.0
2014-Apr-10 10:24N 34°41' E 135°11'0 0.0
2014-Apr-10 09:25N 34°41' E 135°11'0 0.0
2014-Apr-10 08:31N 34°41' E 135°11'4 4.6
2014-Apr-10 07:33N 34°38' E 135°08'4 4.5
2014-Apr-10 06:33N 34°41' E 135°11'0 0.0
2014-Apr-10 05:29N 34°41' E 135°11'2 2.4
2014-Apr-10 04:33N 34°39' E 135°11'2 1.6
2014-Apr-10 03:33N 34°37' E 135°12'3 3.5
2014-Apr-10 02:33N 34°41' E 135°11'0 0.0
2014-Apr-10 01:29N 34°41' E 135°11'0 0.0
2014-Apr-10 00:29N 34°41' E 135°11'0 0.0
2014-Apr-09 23:29N 34°41' E 135°11'0 0.0
2014-Apr-09 22:23N 34°41' E 135°11'0 0.0
2014-Apr-09 21:29N 34°41' E 135°11'0 0.0
2014-Apr-09 20:29N 34°41' E 135°11'0 0.0
2014-Apr-09 19:29N 34°41' E 135°11'0 0.0
2014-Apr-09 18:29N 34°41' E 135°11'0 0.0
2014-Apr-09 17:29N 34°41' E 135°11'0 0.0
2014-Apr-09 16:29N 34°41' E 135°11'0 0.0
2014-Apr-09 15:29N 34°41' E 135°11'0 0.0
2014-Apr-09 14:29N 34°41' E 135°11'0 0.0
2014-Apr-09 13:29N 34°41' E 135°11'0 0.0
2014-Apr-09 12:29N 34°41' E 135°11'7 7.7
2014-Apr-09 11:33N 34°35' E 135°06'3 2.7
2014-Apr-09 10:33N 34°37' E 135°08'4 4.5
2014-Apr-09 09:33N 34°41' E 135°11'0 0.0
2014-Apr-09 08:27N 34°41' E 135°11'0 0.0
2014-Apr-09 07:33N 34°41' E 135°11'0 0.0
2014-Apr-09 06:30N 34°41' E 135°11'0 0.0
2014-Apr-09 05:30N 34°41' E 135°11'0 0.0
2014-Apr-09 04:30N 34°41' E 135°11'0 0.0
2014-Apr-09 03:30N 34°41' E 135°11'0 0.0
2014-Apr-09 02:33N 34°41' E 135°11'0 0.0
2014-Apr-09 01:28N 34°41' E 135°11'0 0.0
2014-Apr-09 00:28N 34°41' E 135°11'0 0.0
2014-Apr-08 23:28N 34°41' E 135°11'0 0.0
2014-Apr-08 22:28N 34°41' E 135°11'0 0.0
2014-Apr-08 21:28N 34°41' E 135°11'0 0.0
2014-Apr-08 20:28N 34°41' E 135°11'0 0.0
2014-Apr-08 19:22N 34°41' E 135°11'0 0.0
2014-Apr-08 18:28N 34°41' E 135°11'0 0.0
2014-Apr-08 17:28N 34°41' E 135°11'0 0.0
2014-Apr-08 16:28N 34°41' E 135°11'0 0.0
2014-Apr-08 15:22N 34°41' E 135°11'0 0.0
2014-Apr-08 14:10N 34°41' E 135°11'0 0.0
2014-Apr-08 13:28N 34°41' E 135°11'0 0.0
2014-Apr-08 12:28N 34°41' E 135°11'7 7.4
2014-Apr-08 11:34N 34°36' E 135°06'1 1.4
2014-Apr-08 10:33N 34°37' E 135°07'5 4.8
2014-Apr-08 09:28N 34°41' E 135°11'0 0.0
2014-Apr-08 08:34N 34°41' E 135°11'5 4.9
2014-Apr-08 07:33N 34°37' E 135°07'5 5.0
2014-Apr-08 06:33N 34°41' E 135°11'0 0.0
2014-Apr-08 05:31N 34°41' E 135°11'3 2.7
2014-Apr-08 04:33N 34°38' E 135°11'3 2.7
2014-Apr-08 03:33N 34°37' E 135°14'  

Dump ship's entire track history

sailing weather and tide predictions

Luminous Kobe-2 — JJ3868 — position and weather